sensor_id;sensor_type;location;lat;lon;timestamp;temperature;humidity
6520;DHT22;3293;51.690;5.982;2023-03-20T00:02:29;9.00;99.90
6520;DHT22;3293;51.690;5.982;2023-03-20T00:07:30;8.90;99.90
6520;DHT22;3293;51.690;5.982;2023-03-20T00:12:31;8.80;99.90
6520;DHT22;3293;51.690;5.982;2023-03-20T00:17:31;8.90;99.90
6520;DHT22;3293;51.690;5.982;2023-03-20T00:22:31;8.90;99.90
6520;DHT22;3293;51.690;5.982;2023-03-20T00:27:31;8.90;99.90
6520;DHT22;3293;51.690;5.982;2023-03-20T00:32:31;8.80;99.90
6520;DHT22;3293;51.690;5.982;2023-03-20T00:37:31;8.90;99.90
6520;DHT22;3293;51.690;5.982;2023-03-20T00:42:31;8.90;99.90
6520;DHT22;3293;51.690;5.982;2023-03-20T00:47:34;8.80;99.90
6520;DHT22;3293;51.690;5.982;2023-03-20T00:52:36;8.80;99.90
6520;DHT22;3293;51.690;5.982;2023-03-20T00:57:42;8.70;99.90
6520;DHT22;3293;51.690;5.982;2023-03-20T01:02:43;8.80;99.90
6520;DHT22;3293;51.690;5.982;2023-03-20T01:07:44;8.80;99.90
6520;DHT22;3293;51.690;5.982;2023-03-20T01:12:45;8.70;99.90
6520;DHT22;3293;51.690;5.982;2023-03-20T01:17:46;8.80;99.90
6520;DHT22;3293;51.690;5.982;2023-03-20T01:22:47;8.70;99.90
6520;DHT22;3293;51.690;5.982;2023-03-20T01:27:51;8.70;99.90
6520;DHT22;3293;51.690;5.982;2023-03-20T01:32:52;8.70;99.90
6520;DHT22;3293;51.690;5.982;2023-03-20T01:37:52;8.70;99.90
6520;DHT22;3293;51.690;5.982;2023-03-20T01:42:53;8.70;99.90
6520;DHT22;3293;51.690;5.982;2023-03-20T01:47:53;8.70;99.90
6520;DHT22;3293;51.690;5.982;2023-03-20T01:53:07;8.70;99.90
6520;DHT22;3293;51.690;5.982;2023-03-20T01:58:14;8.70;99.90
6520;DHT22;3293;51.690;5.982;2023-03-20T02:03:16;8.60;99.90
6520;DHT22;3293;51.690;5.982;2023-03-20T02:08:28;8.60;99.90
6520;DHT22;3293;51.690;5.982;2023-03-20T02:13:30;8.60;99.90
6520;DHT22;3293;51.690;5.982;2023-03-20T02:18:31;8.60;99.90
6520;DHT22;3293;51.690;5.982;2023-03-20T02:24:04;8.60;99.90
6520;DHT22;3293;51.690;5.982;2023-03-20T02:29:53;8.50;99.90
6520;DHT22;3293;51.690;5.982;2023-03-20T02:40:41;8.30;99.90
6520;DHT22;3293;51.690;5.982;2023-03-20T02:45:52;8.10;99.90
6520;DHT22;3293;51.690;5.982;2023-03-20T02:51:18;8.00;99.90
6520;DHT22;3293;51.690;5.982;2023-03-20T03:01:38;7.80;99.90
6520;DHT22;3293;51.690;5.982;2023-03-20T03:06:42;7.80;99.90
6520;DHT22;3293;51.690;5.982;2023-03-20T03:11:52;7.70;99.90
6520;DHT22;3293;51.690;5.982;2023-03-20T03:16:52;7.70;99.90
6520;DHT22;3293;51.690;5.982;2023-03-20T03:21:53;7.70;99.90
6520;DHT22;3293;51.690;5.982;2023-03-20T03:26:57;7.70;99.90
6520;DHT22;3293;51.690;5.982;2023-03-20T03:32:00;7.60;99.90
6520;DHT22;3293;51.690;5.982;2023-03-20T03:37:19;7.60;99.90
6520;DHT22;3293;51.690;5.982;2023-03-20T03:42:32;7.50;99.90
6520;DHT22;3293;51.690;5.982;2023-03-20T03:47:56;7.50;99.90
6520;DHT22;3293;51.690;5.982;2023-03-20T03:53:03;7.40;99.90
6520;DHT22;3293;51.690;5.982;2023-03-20T03:58:12;7.40;99.90
6520;DHT22;3293;51.690;5.982;2023-03-20T04:03:15;7.40;99.90
6520;DHT22;3293;51.690;5.982;2023-03-20T04:08:15;7.30;99.90
6520;DHT22;3293;51.690;5.982;2023-03-20T04:13:15;7.30;99.90
6520;DHT22;3293;51.690;5.982;2023-03-20T04:18:17;7.40;99.90
6520;DHT22;3293;51.690;5.982;2023-03-20T04:23:17;7.40;99.90
6520;DHT22;3293;51.690;5.982;2023-03-20T04:28:17;7.30;99.90
6520;DHT22;3293;51.690;5.982;2023-03-20T04:33:18;7.20;99.90
6520;DHT22;3293;51.690;5.982;2023-03-20T04:38:18;7.10;99.90
6520;DHT22;3293;51.690;5.982;2023-03-20T04:43:18;7.10;99.90
6520;DHT22;3293;51.690;5.982;2023-03-20T04:48:18;7.10;99.90
6520;DHT22;3293;51.690;5.982;2023-03-20T04:53:18;7.10;99.90
6520;DHT22;3293;51.690;5.982;2023-03-20T04:58:18;7.10;99.90
6520;DHT22;3293;51.690;5.982;2023-03-20T05:03:18;7.00;99.90
6520;DHT22;3293;51.690;5.982;2023-03-20T05:08:18;6.90;99.90
6520;DHT22;3293;51.690;5.982;2023-03-20T05:13:18;6.90;99.90
6520;DHT22;3293;51.690;5.982;2023-03-20T05:18:18;6.90;99.90
6520;DHT22;3293;51.690;5.982;2023-03-20T05:23:18;6.90;99.90
6520;DHT22;3293;51.690;5.982;2023-03-20T05:28:18;6.90;99.90
6520;DHT22;3293;51.690;5.982;2023-03-20T05:33:18;6.90;99.90
6520;DHT22;3293;51.690;5.982;2023-03-20T05:38:18;6.90;99.90
6520;DHT22;3293;51.690;5.982;2023-03-20T05:43:21;7.00;99.90
6520;DHT22;3293;51.690;5.982;2023-03-20T05:48:21;7.00;99.90
6520;DHT22;3293;51.690;5.982;2023-03-20T05:53:21;6.90;99.90
6520;DHT22;3293;51.690;5.982;2023-03-20T05:58:22;7.00;99.90
6520;DHT22;3293;51.690;5.982;2023-03-20T06:03:22;7.00;99.90
6520;DHT22;3293;51.690;5.982;2023-03-20T06:08:22;7.10;99.90
6520;DHT22;3293;51.690;5.982;2023-03-20T06:13:21;7.10;99.90
6520;DHT22;3293;51.690;5.982;2023-03-20T06:18:21;7.10;99.90
6520;DHT22;3293;51.690;5.982;2023-03-20T06:23:22;7.20;99.90
6520;DHT22;3293;51.690;5.982;2023-03-20T06:28:22;7.20;99.90
6520;DHT22;3293;51.690;5.982;2023-03-20T06:33:22;7.30;99.90
6520;DHT22;3293;51.690;5.982;2023-03-20T06:38:23;7.30;99.90
6520;DHT22;3293;51.690;5.982;2023-03-20T06:43:22;7.40;99.90
6520;DHT22;3293;51.690;5.982;2023-03-20T06:48:22;7.50;99.90
6520;DHT22;3293;51.690;5.982;2023-03-20T06:53:23;7.70;99.90
6520;DHT22;3293;51.690;5.982;2023-03-20T06:58:23;7.80;99.90
6520;DHT22;3293;51.690;5.982;2023-03-20T07:03:23;8.00;99.90
6520;DHT22;3293;51.690;5.982;2023-03-20T07:08:23;8.20;99.90
6520;DHT22;3293;51.690;5.982;2023-03-20T07:13:23;8.30;99.90
6520;DHT22;3293;51.690;5.982;2023-03-20T07:18:24;8.30;99.90
6520;DHT22;3293;51.690;5.982;2023-03-20T07:23:24;8.30;99.90
6520;DHT22;3293;51.690;5.982;2023-03-20T07:28:24;8.40;99.90
6520;DHT22;3293;51.690;5.982;2023-03-20T07:33:24;8.40;99.90
6520;DHT22;3293;51.690;5.982;2023-03-20T07:38:24;8.50;99.90
6520;DHT22;3293;51.690;5.982;2023-03-20T07:43:24;8.40;99.90
6520;DHT22;3293;51.690;5.982;2023-03-20T07:48:25;8.40;99.90
6520;DHT22;3293;51.690;5.982;2023-03-20T07:53:24;8.50;99.90
6520;DHT22;3293;51.690;5.982;2023-03-20T07:58:24;8.50;99.90
6520;DHT22;3293;51.690;5.982;2023-03-20T08:03:24;8.50;99.90
6520;DHT22;3293;51.690;5.982;2023-03-20T08:08:24;8.50;99.90
6520;DHT22;3293;51.690;5.982;2023-03-20T08:13:24;8.60;99.90
6520;DHT22;3293;51.690;5.982;2023-03-20T08:18:24;8.60;99.90
6520;DHT22;3293;51.690;5.982;2023-03-20T08:23:25;8.70;99.90
6520;DHT22;3293;51.690;5.982;2023-03-20T08:28:26;8.80;99.90
6520;DHT22;3293;51.690;5.982;2023-03-20T08:33:25;8.80;99.90
6520;DHT22;3293;51.690;5.982;2023-03-20T08:38:26;8.90;99.90
6520;DHT22;3293;51.690;5.982;2023-03-20T08:43:26;9.00;99.90
6520;DHT22;3293;51.690;5.982;2023-03-20T08:48:26;9.10;99.90
6520;DHT22;3293;51.690;5.982;2023-03-20T08:53:26;9.20;99.90
6520;DHT22;3293;51.690;5.982;2023-03-20T08:58:26;9.30;99.90
6520;DHT22;3293;51.690;5.982;2023-03-20T09:03:26;9.40;99.90
6520;DHT22;3293;51.690;5.982;2023-03-20T09:08:26;9.50;99.90
6520;DHT22;3293;51.690;5.982;2023-03-20T09:13:26;9.70;99.90
6520;DHT22;3293;51.690;5.982;2023-03-20T09:18:26;9.80;99.90
6520;DHT22;3293;51.690;5.982;2023-03-20T09:23:26;9.60;99.90
6520;DHT22;3293;51.690;5.982;2023-03-20T09:28:26;9.70;99.90
6520;DHT22;3293;51.690;5.982;2023-03-20T09:33:26;9.60;99.90
6520;DHT22;3293;51.690;5.982;2023-03-20T09:38:26;9.60;99.90
6520;DHT22;3293;51.690;5.982;2023-03-20T09:43:54;9.50;99.90
6520;DHT22;3293;51.690;5.982;2023-03-20T09:49:15;9.60;99.90
6520;DHT22;3293;51.690;5.982;2023-03-20T09:54:36;9.70;99.90
6520;DHT22;3293;51.690;5.982;2023-03-20T09:59:38;9.70;99.90
6520;DHT22;3293;51.690;5.982;2023-03-20T10:04:38;9.50;99.90
6520;DHT22;3293;51.690;5.982;2023-03-20T10:09:38;9.50;99.90
6520;DHT22;3293;51.690;5.982;2023-03-20T10:20:03;9.50;99.90
6520;DHT22;3293;51.690;5.982;2023-03-20T10:30:21;9.70;99.90
6520;DHT22;3293;51.690;5.982;2023-03-20T10:40:50;9.40;99.90
6520;DHT22;3293;51.690;5.982;2023-03-20T10:45:56;9.80;99.90
6520;DHT22;3293;51.690;5.982;2023-03-20T10:50:59;10.40;99.90
6520;DHT22;3293;51.690;5.982;2023-03-20T10:56:11;10.50;99.90
6520;DHT22;3293;51.690;5.982;2023-03-20T11:01:13;10.60;99.90
6520;DHT22;3293;51.690;5.982;2023-03-20T11:06:18;10.40;99.90
6520;DHT22;3293;51.690;5.982;2023-03-20T11:11:24;10.50;99.90
6520;DHT22;3293;51.690;5.982;2023-03-20T11:16:31;10.60;99.90
6520;DHT22;3293;51.690;5.982;2023-03-20T11:21:36;10.60;99.90
6520;DHT22;3293;51.690;5.982;2023-03-20T11:26:43;10.70;99.90
6520;DHT22;3293;51.690;5.982;2023-03-20T11:31:43;10.70;99.90
6520;DHT22;3293;51.690;5.982;2023-03-20T11:36:56;10.60;99.90
6520;DHT22;3293;51.690;5.982;2023-03-20T11:41:57;10.50;99.90
6520;DHT22;3293;51.690;5.982;2023-03-20T11:52:13;10.80;99.90
6520;DHT22;3293;51.690;5.982;2023-03-20T12:02:34;11.10;99.90
6520;DHT22;3293;51.690;5.982;2023-03-20T12:07:36;11.30;99.90
6520;DHT22;3293;51.690;5.982;2023-03-20T12:12:39;11.30;99.90
6520;DHT22;3293;51.690;5.982;2023-03-20T12:17:45;10.90;99.90
6520;DHT22;3293;51.690;5.982;2023-03-20T12:22:59;10.90;99.90
6520;DHT22;3293;51.690;5.982;2023-03-20T12:38:47;11.70;99.90
6520;DHT22;3293;51.690;5.982;2023-03-20T12:44:28;11.60;99.90
6520;DHT22;3293;51.690;5.982;2023-03-20T12:49:47;11.60;99.90
6520;DHT22;3293;51.690;5.982;2023-03-20T13:05:32;11.30;99.90
6520;DHT22;3293;51.690;5.982;2023-03-20T13:10:39;11.30;99.90
6520;DHT22;3293;51.690;5.982;2023-03-20T13:21:46;11.20;99.90
6520;DHT22;3293;51.690;5.982;2023-03-20T13:27:12;11.60;99.90
6520;DHT22;3293;51.690;5.982;2023-03-20T13:37:32;11.50;99.90
6520;DHT22;3293;51.690;5.982;2023-03-20T13:47:46;11.20;99.90
6520;DHT22;3293;51.690;5.982;2023-03-20T13:52:55;11.10;99.90
6520;DHT22;3293;51.690;5.982;2023-03-20T14:03:17;11.00;99.90
6520;DHT22;3293;51.690;5.982;2023-03-20T14:08:22;11.00;99.90
6520;DHT22;3293;51.690;5.982;2023-03-20T14:13:22;10.80;99.90
6520;DHT22;3293;51.690;5.982;2023-03-20T14:18:24;11.00;99.90
6520;DHT22;3293;51.690;5.982;2023-03-20T14:23:41;11.10;99.90
6520;DHT22;3293;51.690;5.982;2023-03-20T14:39:23;10.80;99.90
6520;DHT22;3293;51.690;5.982;2023-03-20T14:44:32;10.50;99.90
6520;DHT22;3293;51.690;5.982;2023-03-20T14:49:54;10.10;99.90
6520;DHT22;3293;51.690;5.982;2023-03-20T15:05:27;10.10;99.90
6520;DHT22;3293;51.690;5.982;2023-03-20T15:10:28;10.00;99.90
6520;DHT22;3293;51.690;5.982;2023-03-20T15:15:29;10.10;99.90
6520;DHT22;3293;51.690;5.982;2023-03-20T15:20:34;10.00;99.90
6520;DHT22;3293;51.690;5.982;2023-03-20T15:25:43;10.00;99.90
6520;DHT22;3293;51.690;5.982;2023-03-20T15:30:44;10.00;99.90
6520;DHT22;3293;51.690;5.982;2023-03-20T15:35:45;10.00;99.90
6520;DHT22;3293;51.690;5.982;2023-03-20T15:40:45;10.20;99.90
6520;DHT22;3293;51.690;5.982;2023-03-20T15:45:45;10.20;99.90
6520;DHT22;3293;51.690;5.982;2023-03-20T15:50:49;10.20;99.90
6520;DHT22;3293;51.690;5.982;2023-03-20T15:55:57;10.10;99.90
6520;DHT22;3293;51.690;5.982;2023-03-20T16:01:01;10.00;99.90
6520;DHT22;3293;51.690;5.982;2023-03-20T16:06:01;9.90;99.90
6520;DHT22;3293;51.690;5.982;2023-03-20T16:11:15;9.80;99.90
6520;DHT22;3293;51.690;5.982;2023-03-20T16:16:18;10.00;99.90
6520;DHT22;3293;51.690;5.982;2023-03-20T16:21:27;9.90;99.90
6520;DHT22;3293;51.690;5.982;2023-03-20T16:26:28;9.90;99.90
6520;DHT22;3293;51.690;5.982;2023-03-20T16:31:33;9.90;99.90
6520;DHT22;3293;51.690;5.982;2023-03-20T16:36:36;9.90;99.90
6520;DHT22;3293;51.690;5.982;2023-03-20T16:41:38;9.90;99.90
6520;DHT22;3293;51.690;5.982;2023-03-20T16:46:57;9.90;99.90
6520;DHT22;3293;51.690;5.982;2023-03-20T16:52:01;9.90;99.90
6520;DHT22;3293;51.690;5.982;2023-03-20T16:57:02;9.90;99.90
6520;DHT22;3293;51.690;5.982;2023-03-20T17:02:29;10.00;99.90
6520;DHT22;3293;51.690;5.982;2023-03-20T17:07:30;10.10;99.90
6520;DHT22;3293;51.690;5.982;2023-03-20T17:12:31;10.00;99.90
6520;DHT22;3293;51.690;5.982;2023-03-20T17:17:31;10.00;99.90
6520;DHT22;3293;51.690;5.982;2023-03-20T17:22:33;10.00;99.90
6520;DHT22;3293;51.690;5.982;2023-03-20T17:27:33;10.00;99.90
6520;DHT22;3293;51.690;5.982;2023-03-20T17:32:33;10.00;99.90
6520;DHT22;3293;51.690;5.982;2023-03-20T17:37:33;10.10;99.90
6520;DHT22;3293;51.690;5.982;2023-03-20T17:42:33;10.00;99.90
6520;DHT22;3293;51.690;5.982;2023-03-20T17:47:33;9.90;99.90
6520;DHT22;3293;51.690;5.982;2023-03-20T17:52:34;9.90;99.90
6520;DHT22;3293;51.690;5.982;2023-03-20T17:57:36;9.90;99.90
6520;DHT22;3293;51.690;5.982;2023-03-20T18:02:36;10.00;99.90
6520;DHT22;3293;51.690;5.982;2023-03-20T18:07:37;10.00;99.90
6520;DHT22;3293;51.690;5.982;2023-03-20T18:12:37;9.90;99.90
6520;DHT22;3293;51.690;5.982;2023-03-20T18:17:37;9.90;99.90
6520;DHT22;3293;51.690;5.982;2023-03-20T18:22:37;9.90;99.90
6520;DHT22;3293;51.690;5.982;2023-03-20T18:27:36;9.80;99.90
6520;DHT22;3293;51.690;5.982;2023-03-20T18:32:37;9.80;99.90
6520;DHT22;3293;51.690;5.982;2023-03-20T18:37:38;9.90;99.90
6520;DHT22;3293;51.690;5.982;2023-03-20T18:42:38;9.80;99.90
6520;DHT22;3293;51.690;5.982;2023-03-20T18:47:39;9.90;99.90
6520;DHT22;3293;51.690;5.982;2023-03-20T18:52:39;9.80;99.90
6520;DHT22;3293;51.690;5.982;2023-03-20T18:57:39;9.90;99.90
6520;DHT22;3293;51.690;5.982;2023-03-20T19:02:41;10.00;99.90
6520;DHT22;3293;51.690;5.982;2023-03-20T19:07:42;9.90;99.90
6520;DHT22;3293;51.690;5.982;2023-03-20T19:12:42;9.90;99.90
6520;DHT22;3293;51.690;5.982;2023-03-20T19:17:42;9.90;99.90
6520;DHT22;3293;51.690;5.982;2023-03-20T19:22:42;9.90;99.90
6520;DHT22;3293;51.690;5.982;2023-03-20T19:27:42;9.90;99.90
6520;DHT22;3293;51.690;5.982;2023-03-20T19:32:42;10.00;99.90
6520;DHT22;3293;51.690;5.982;2023-03-20T19:37:42;10.00;99.90
6520;DHT22;3293;51.690;5.982;2023-03-20T19:42:42;9.90;99.90
6520;DHT22;3293;51.690;5.982;2023-03-20T19:47:42;10.00;99.90
6520;DHT22;3293;51.690;5.982;2023-03-20T19:52:42;10.00;99.90
6520;DHT22;3293;51.690;5.982;2023-03-20T19:57:42;10.00;99.90
6520;DHT22;3293;51.690;5.982;2023-03-20T20:02:42;10.00;99.90
6520;DHT22;3293;51.690;5.982;2023-03-20T20:07:42;10.00;99.90
6520;DHT22;3293;51.690;5.982;2023-03-20T20:12:41;10.00;99.90
6520;DHT22;3293;51.690;5.982;2023-03-20T20:17:43;10.00;99.90
6520;DHT22;3293;51.690;5.982;2023-03-20T20:22:44;10.00;99.90
6520;DHT22;3293;51.690;5.982;2023-03-20T20:27:44;10.00;99.90
6520;DHT22;3293;51.690;5.982;2023-03-20T20:32:45;10.00;99.90
6520;DHT22;3293;51.690;5.982;2023-03-20T20:37:45;10.00;99.90
6520;DHT22;3293;51.690;5.982;2023-03-20T20:42:46;10.00;99.90
6520;DHT22;3293;51.690;5.982;2023-03-20T20:47:50;10.00;99.90
6520;DHT22;3293;51.690;5.982;2023-03-20T20:52:51;10.00;99.90
6520;DHT22;3293;51.690;5.982;2023-03-20T20:57:53;10.10;99.90
6520;DHT22;3293;51.690;5.982;2023-03-20T21:02:54;10.10;99.90
6520;DHT22;3293;51.690;5.982;2023-03-20T21:07:55;10.10;99.90
6520;DHT22;3293;51.690;5.982;2023-03-20T21:12:57;10.10;99.90
6520;DHT22;3293;51.690;5.982;2023-03-20T21:17:59;10.20;99.90
6520;DHT22;3293;51.690;5.982;2023-03-20T21:22:59;10.20;99.90
6520;DHT22;3293;51.690;5.982;2023-03-20T21:27:59;10.20;99.90
6520;DHT22;3293;51.690;5.982;2023-03-20T21:32:59;10.20;99.90
6520;DHT22;3293;51.690;5.982;2023-03-20T21:37:59;10.20;99.90
6520;DHT22;3293;51.690;5.982;2023-03-20T21:42:59;10.20;99.90
6520;DHT22;3293;51.690;5.982;2023-03-20T21:47:59;10.20;99.90
6520;DHT22;3293;51.690;5.982;2023-03-20T21:53:00;10.20;99.90
6520;DHT22;3293;51.690;5.982;2023-03-20T21:58:00;10.20;99.90
6520;DHT22;3293;51.690;5.982;2023-03-20T22:02:59;10.20;99.90
6520;DHT22;3293;51.690;5.982;2023-03-20T22:07:59;10.20;99.90
6520;DHT22;3293;51.690;5.982;2023-03-20T22:13:00;10.20;99.90
6520;DHT22;3293;51.690;5.982;2023-03-20T22:17:59;10.20;99.90
6520;DHT22;3293;51.690;5.982;2023-03-20T22:22:59;10.20;99.90
6520;DHT22;3293;51.690;5.982;2023-03-20T22:28:00;10.20;99.90
6520;DHT22;3293;51.690;5.982;2023-03-20T22:32:59;10.30;99.90
6520;DHT22;3293;51.690;5.982;2023-03-20T22:37:59;10.30;99.90
6520;DHT22;3293;51.690;5.982;2023-03-20T22:42:59;10.30;99.90
6520;DHT22;3293;51.690;5.982;2023-03-20T22:47:59;10.30;99.90
6520;DHT22;3293;51.690;5.982;2023-03-20T22:52:59;10.20;99.90
6520;DHT22;3293;51.690;5.982;2023-03-20T22:57:59;10.20;99.90
6520;DHT22;3293;51.690;5.982;2023-03-20T23:02:59;10.30;99.90
6520;DHT22;3293;51.690;5.982;2023-03-20T23:08:00;10.30;99.90
6520;DHT22;3293;51.690;5.982;2023-03-20T23:13:00;10.30;99.90
6520;DHT22;3293;51.690;5.982;2023-03-20T23:18:00;10.30;99.90
6520;DHT22;3293;51.690;5.982;2023-03-20T23:23:00;10.30;99.90
6520;DHT22;3293;51.690;5.982;2023-03-20T23:28:00;10.30;99.90
6520;DHT22;3293;51.690;5.982;2023-03-20T23:32:59;10.30;99.90
6520;DHT22;3293;51.690;5.982;2023-03-20T23:38:00;10.30;99.90
6520;DHT22;3293;51.690;5.982;2023-03-20T23:42:59;10.30;99.90
6520;DHT22;3293;51.690;5.982;2023-03-20T23:48:00;10.30;99.90
6520;DHT22;3293;51.690;5.982;2023-03-20T23:53:00;10.20;99.90
6520;DHT22;3293;51.690;5.982;2023-03-20T23:58:00;10.20;99.90
